createdAt,value
2017-11-26T00:00:38.715Z,3.34
2017-11-26T00:03:06.295Z,3.33
2017-11-26T00:05:33.825Z,3.33
2017-11-26T00:08:01.369Z,3.30
2017-11-26T00:10:28.908Z,3.29
2017-11-26T00:12:56.460Z,3.30
2017-11-26T00:15:23.996Z,3.28
2017-11-26T00:17:51.531Z,3.26
2017-11-26T00:20:19.072Z,3.25
2017-11-26T00:22:46.599Z,3.24
2017-11-26T00:25:14.127Z,3.24
2017-11-26T00:27:41.659Z,3.22
2017-11-26T00:30:09.229Z,3.22
2017-11-26T00:32:36.785Z,3.20
2017-11-26T00:35:04.363Z,3.21
2017-11-26T00:37:31.897Z,3.17
2017-11-26T00:39:59.503Z,3.17
2017-11-26T00:42:27.049Z,3.18
2017-11-26T00:44:54.575Z,3.18
2017-11-26T00:47:22.102Z,3.17
2017-11-26T00:49:49.659Z,3.14
2017-11-26T00:52:17.212Z,3.16
2017-11-26T00:54:44.843Z,3.15
2017-11-26T00:57:12.377Z,3.07
2017-11-26T00:59:39.909Z,3.07
2017-11-26T01:02:07.432Z,3.05
2017-11-26T01:04:34.964Z,3.05
2017-11-26T01:07:02.485Z,3.05
2017-11-26T01:09:30.017Z,3.03
2017-11-26T01:11:57.544Z,3.03
2017-11-26T01:14:25.068Z,3.02
2017-11-26T01:16:52.589Z,3.03
2017-11-26T01:19:20.121Z,3.02
2017-11-26T01:21:47.647Z,3.00
2017-11-26T01:24:15.183Z,2.99
2017-11-26T01:26:42.708Z,2.97
2017-11-26T01:29:10.237Z,2.97
2017-11-26T01:31:37.759Z,2.96
2017-11-26T01:34:05.285Z,2.95
2017-11-26T01:36:32.824Z,2.93
2017-11-26T01:39:00.362Z,2.90
2017-11-26T01:41:27.911Z,2.92
2017-11-26T01:43:55.442Z,2.92
2017-11-26T01:46:22.969Z,2.90
2017-11-26T01:48:50.509Z,2.92
2017-11-26T01:51:18.038Z,2.91
2017-11-26T01:53:45.574Z,2.94
2017-11-26T01:56:13.102Z,2.94
2017-11-26T01:58:40.636Z,2.91
2017-11-26T02:01:08.163Z,2.92
2017-11-26T02:03:35.686Z,2.94
2017-11-26T02:06:03.217Z,2.95
2017-11-26T02:08:30.758Z,2.94
2017-11-26T02:10:58.292Z,2.93
2017-11-26T02:13:25.816Z,2.94
2017-11-26T02:15:53.341Z,2.91
2017-11-26T02:18:20.869Z,2.90
2017-11-26T02:20:48.392Z,2.89
2017-11-26T02:23:15.916Z,2.88
2017-11-26T02:25:43.442Z,2.82
2017-11-26T02:28:10.973Z,2.81
2017-11-26T02:30:38.503Z,2.82
2017-11-26T02:33:17.698Z,2.73
2017-11-26T02:35:57.112Z,2.72
2017-11-26T02:38:24.650Z,2.69
2017-11-26T02:40:52.187Z,2.63
2017-11-26T02:43:19.716Z,2.63
2017-11-26T02:45:47.257Z,2.59
2017-11-26T02:48:14.789Z,2.56
2017-11-26T02:50:42.330Z,2.54
2017-11-26T02:53:09.849Z,2.49
2017-11-26T02:55:37.376Z,2.51
2017-11-26T02:58:04.902Z,2.49
2017-11-26T03:00:32.428Z,2.46
2017-11-26T03:02:59.945Z,2.44
2017-11-26T03:05:27.469Z,2.43
2017-11-26T03:07:54.998Z,2.41
2017-11-26T03:10:22.530Z,2.37
2017-11-26T03:12:50.535Z,2.35
2017-11-26T03:15:18.061Z,2.29
2017-11-26T03:17:45.589Z,2.30
2017-11-26T03:20:13.112Z,2.26
2017-11-26T03:22:40.638Z,2.26
2017-11-26T03:25:08.162Z,2.22
2017-11-26T03:27:35.692Z,2.21
2017-11-26T03:30:03.219Z,2.19
2017-11-26T03:32:30.747Z,2.15
2017-11-26T03:34:58.273Z,2.15
2017-11-26T03:37:25.795Z,2.09
2017-11-26T03:39:53.315Z,2.09
2017-11-26T03:42:20.844Z,2.08
2017-11-26T03:44:48.363Z,2.05
2017-11-26T03:47:15.890Z,2.04
2017-11-26T03:49:43.419Z,2.06
2017-11-26T03:52:10.953Z,2.02
2017-11-26T03:54:38.489Z,2.03
2017-11-26T03:57:06.015Z,2.02
2017-11-26T03:59:33.537Z,1.98
2017-11-26T04:02:01.062Z,1.98
2017-11-26T04:04:28.603Z,1.99
2017-11-26T04:06:56.135Z,2.01
2017-11-26T04:09:23.668Z,1.98
2017-11-26T04:11:51.193Z,1.97
2017-11-26T04:14:18.723Z,1.98
2017-11-26T04:16:46.247Z,1.98
2017-11-26T04:19:13.772Z,1.97
2017-11-26T04:21:41.296Z,1.96
2017-11-26T04:24:08.827Z,1.97
2017-11-26T04:26:36.356Z,1.98
2017-11-26T04:29:03.884Z,1.97
2017-11-26T04:31:31.416Z,1.99
2017-11-26T04:33:58.943Z,1.99
2017-11-26T04:36:26.477Z,2.01
2017-11-26T04:38:54.012Z,2.02
2017-11-26T04:41:21.537Z,2.03
2017-11-26T04:43:49.061Z,2.06
2017-11-26T04:46:16.584Z,2.07
2017-11-26T04:48:44.111Z,2.10
2017-11-26T04:51:11.633Z,2.13
2017-11-26T04:53:39.155Z,2.12
2017-11-26T04:56:06.682Z,2.12
2017-11-26T04:58:34.204Z,2.10
2017-11-26T05:01:01.719Z,2.10
2017-11-26T05:03:29.239Z,2.08
2017-11-26T05:05:56.770Z,2.08
2017-11-26T05:08:24.292Z,2.07
2017-11-26T05:10:51.816Z,2.05
2017-11-26T05:13:19.340Z,2.04
2017-11-26T05:15:46.860Z,2.02
2017-11-26T05:18:14.388Z,1.98
2017-11-26T05:20:41.918Z,1.99
2017-11-26T05:23:09.434Z,1.96
2017-11-26T05:25:36.965Z,1.97
2017-11-26T05:28:04.479Z,1.92
2017-11-26T05:30:31.995Z,1.93
2017-11-26T05:32:59.517Z,1.90
2017-11-26T05:35:27.053Z,1.93
2017-11-26T05:37:54.576Z,1.90
2017-11-26T05:40:22.095Z,1.95
2017-11-26T05:42:49.624Z,1.95
2017-11-26T05:45:17.145Z,1.93
2017-11-26T05:47:44.683Z,1.93
2017-11-26T05:50:12.207Z,1.93
2017-11-26T05:52:39.723Z,1.87
2017-11-26T05:55:07.244Z,1.84
2017-11-26T05:57:34.777Z,1.82
2017-11-26T06:00:02.309Z,1.79
2017-11-26T06:02:29.836Z,1.78
2017-11-26T06:04:57.354Z,1.78
2017-11-26T06:07:24.873Z,1.76
2017-11-26T06:09:52.387Z,1.77
2017-11-26T06:12:19.912Z,1.72
2017-11-26T06:14:47.446Z,1.74
2017-11-26T06:17:14.965Z,1.73
2017-11-26T06:19:42.494Z,1.74
2017-11-26T06:22:10.022Z,1.72
2017-11-26T06:24:37.552Z,1.72
2017-11-26T06:27:05.074Z,1.70
2017-11-26T06:29:32.600Z,1.71
2017-11-26T06:32:00.148Z,1.70
2017-11-26T06:34:27.672Z,1.71
2017-11-26T06:36:55.190Z,1.75
2017-11-26T06:39:22.743Z,1.80
2017-11-26T06:41:50.269Z,1.84
2017-11-26T06:44:17.806Z,1.89
2017-11-26T06:46:45.332Z,1.88
2017-11-26T06:49:12.851Z,1.94
2017-11-26T06:51:40.380Z,1.98
2017-11-26T06:54:07.898Z,2.03
2017-11-26T06:56:35.415Z,2.08
2017-11-26T06:59:02.932Z,2.11
2017-11-26T07:01:30.460Z,2.14
2017-11-26T07:03:57.991Z,2.21
2017-11-26T07:06:25.505Z,2.29
2017-11-26T07:08:53.024Z,2.38
2017-11-26T07:11:20.548Z,2.41
2017-11-26T07:13:48.066Z,2.39
2017-11-26T07:16:15.597Z,2.38
2017-11-26T07:18:43.135Z,2.42
2017-11-26T07:21:10.658Z,2.52
2017-11-26T07:23:38.182Z,2.54
2017-11-26T07:26:05.739Z,2.54
2017-11-26T07:28:33.268Z,2.53
2017-11-26T07:31:00.788Z,2.53
2017-11-26T07:33:28.314Z,2.53
2017-11-26T07:35:55.843Z,2.53
2017-11-26T07:38:23.363Z,2.56
2017-11-26T07:40:50.897Z,2.76
2017-11-26T07:43:18.420Z,2.81
2017-11-26T07:45:45.945Z,2.71
2017-11-26T07:48:13.468Z,2.86
2017-11-26T07:50:41.002Z,2.84
2017-11-26T07:53:08.525Z,2.84
2017-11-26T07:55:36.050Z,2.97
2017-11-26T07:58:03.579Z,2.95
2017-11-26T08:00:31.108Z,2.86
2017-11-26T08:02:58.652Z,2.94
2017-11-26T08:05:26.184Z,2.91
2017-11-26T08:07:53.716Z,2.95
2017-11-26T08:10:21.239Z,2.96
2017-11-26T08:12:48.762Z,3.03
2017-11-26T08:15:16.287Z,3.07
2017-11-26T08:17:43.806Z,3.17
2017-11-26T08:20:11.327Z,3.24
2017-11-26T08:22:38.856Z,3.34
2017-11-26T08:25:06.373Z,3.50
2017-11-26T08:27:33.895Z,3.63
2017-11-26T08:30:01.415Z,3.80
2017-11-26T08:32:28.935Z,3.80
2017-11-26T08:34:56.468Z,3.84
2017-11-26T08:37:23.985Z,4.16
2017-11-26T08:39:51.529Z,4.52
2017-11-26T08:42:19.055Z,4.60
2017-11-26T08:44:46.578Z,4.23
2017-11-26T08:47:14.101Z,4.40
2017-11-26T08:49:41.618Z,4.25
2017-11-26T08:52:09.146Z,4.32
2017-11-26T08:54:36.693Z,4.58
2017-11-26T08:57:04.221Z,4.58
2017-11-26T08:59:31.766Z,4.79
2017-11-26T09:01:59.326Z,4.73
2017-11-26T09:04:26.860Z,4.89
2017-11-26T09:06:59.805Z,4.90
2017-11-26T09:09:27.327Z,5.03
2017-11-26T09:11:54.852Z,5.19
2017-11-26T09:14:22.376Z,5.02
2017-11-26T09:16:49.900Z,4.72
2017-11-26T09:19:17.419Z,4.93
2017-11-26T09:21:44.950Z,4.81
2017-11-26T09:24:12.482Z,4.63
2017-11-26T09:26:40.008Z,4.75
2017-11-26T09:29:07.561Z,4.75
2017-11-26T09:31:35.095Z,4.74
2017-11-26T09:34:02.621Z,4.87
2017-11-26T09:36:30.149Z,4.90
2017-11-26T09:38:57.668Z,5.01
2017-11-26T09:41:25.184Z,4.86
2017-11-26T09:43:52.713Z,5.05
2017-11-26T09:46:20.257Z,5.08
2017-11-26T09:48:47.784Z,4.95
2017-11-26T09:51:15.324Z,4.92
2017-11-26T09:53:42.847Z,4.90
2017-11-26T09:56:10.360Z,4.93
2017-11-26T09:58:37.878Z,4.97
2017-11-26T10:01:05.402Z,4.68
2017-11-26T10:03:32.932Z,4.81
2017-11-26T10:06:00.453Z,4.79
2017-11-26T10:08:27.974Z,4.74
2017-11-26T10:10:55.498Z,4.73
2017-11-26T10:13:23.024Z,4.83
2017-11-26T10:15:50.559Z,4.89
2017-11-26T10:18:18.083Z,5.18
2017-11-26T10:20:45.601Z,5.22
2017-11-26T10:23:13.134Z,5.59
2017-11-26T10:25:40.673Z,5.75
2017-11-26T10:28:08.191Z,6.01
2017-11-26T10:30:35.708Z,6.27
2017-11-26T10:33:03.222Z,6.42
2017-11-26T10:35:30.744Z,6.32
2017-11-26T10:37:58.277Z,6.21
2017-11-26T10:40:25.797Z,6.32
2017-11-26T10:42:53.324Z,6.11
2017-11-26T10:45:20.850Z,6.28
2017-11-26T10:47:48.372Z,6.31
2017-11-26T10:50:15.900Z,6.48
2017-11-26T10:52:43.425Z,6.48
2017-11-26T10:55:10.968Z,6.70
2017-11-26T10:57:38.502Z,6.50
2017-11-26T11:00:06.132Z,6.54
2017-11-26T11:02:33.642Z,6.64
2017-11-26T11:05:01.187Z,6.77
2017-11-26T11:07:28.703Z,6.98
2017-11-26T11:09:56.227Z,6.97
2017-11-26T11:12:23.755Z,7.01
2017-11-26T11:14:51.277Z,6.78
2017-11-26T11:17:18.996Z,6.90
2017-11-26T11:19:46.564Z,7.01
2017-11-26T11:22:14.091Z,7.09
2017-11-26T11:24:41.835Z,7.13
2017-11-26T11:27:09.357Z,6.96
2017-11-26T11:29:36.878Z,6.98
2017-11-26T11:32:04.623Z,6.96
2017-11-26T11:34:32.184Z,7.16
2017-11-26T11:36:59.906Z,6.94
2017-11-26T11:39:28.256Z,6.82
2017-11-26T11:41:55.819Z,6.98
2017-11-26T11:44:23.347Z,7.02
2017-11-26T11:46:50.870Z,7.00
2017-11-26T11:49:18.384Z,7.00
2017-11-26T11:51:45.894Z,6.99
2017-11-26T11:54:13.420Z,6.82
2017-11-26T11:56:41.422Z,6.91
2017-11-26T11:59:08.932Z,6.74
2017-11-26T12:01:36.455Z,6.52
2017-11-26T12:04:03.984Z,6.62
2017-11-26T12:06:31.503Z,6.69
2017-11-26T12:08:59.020Z,6.52
2017-11-26T12:11:26.535Z,6.53
2017-11-26T12:13:54.056Z,6.48
2017-11-26T12:16:21.582Z,6.59
2017-11-26T12:18:49.102Z,6.59
2017-11-26T12:21:16.622Z,6.44
2017-11-26T12:23:44.143Z,6.37
2017-11-26T12:26:11.683Z,6.46
2017-11-26T12:28:39.212Z,6.36
2017-11-26T12:31:06.726Z,6.36
2017-11-26T12:33:34.244Z,6.39
2017-11-26T12:36:01.764Z,6.40
2017-11-26T12:38:29.298Z,6.37
2017-11-26T12:40:56.812Z,6.44
2017-11-26T12:43:24.331Z,6.39
2017-11-26T12:45:51.852Z,6.38
2017-11-26T12:48:19.383Z,6.25
2017-11-26T12:50:46.939Z,6.28
2017-11-26T12:53:14.460Z,6.28
2017-11-26T12:55:42.405Z,6.09
2017-11-26T12:58:09.929Z,6.10
2017-11-26T13:00:37.456Z,6.12
2017-11-26T13:03:04.981Z,6.12
2017-11-26T13:05:32.504Z,6.06
2017-11-26T13:08:00.732Z,6.04
2017-11-26T13:10:29.054Z,6.05
2017-11-26T13:12:56.587Z,6.05
2017-11-26T13:15:24.115Z,6.06
2017-11-26T13:17:51.646Z,6.08
2017-11-26T13:20:19.168Z,6.10
2017-11-26T13:22:46.684Z,6.03
2017-11-26T13:25:14.221Z,6.04
2017-11-26T13:27:41.735Z,6.05
2017-11-26T13:30:09.278Z,6.01
2017-11-26T13:32:36.794Z,6.00
2017-11-26T13:35:04.315Z,6.04
2017-11-26T13:37:31.840Z,6.06
2017-11-26T13:39:59.367Z,6.04
2017-11-26T13:42:26.916Z,6.04
2017-11-26T13:44:54.436Z,6.09
2017-11-26T13:47:21.956Z,5.99
2017-11-26T13:49:49.496Z,6.00
2017-11-26T13:52:17.035Z,6.00
2017-11-26T13:54:44.554Z,5.98
2017-11-26T13:57:12.089Z,6.01
2017-11-26T13:59:39.611Z,6.00
2017-11-26T14:02:07.129Z,5.96
2017-11-26T14:04:34.683Z,5.94
2017-11-26T14:07:02.234Z,5.95
2017-11-26T14:09:29.752Z,5.92
2017-11-26T14:11:57.281Z,5.90
2017-11-26T14:14:24.791Z,5.92
2017-11-26T14:16:52.294Z,5.87
2017-11-26T14:19:19.826Z,5.92
2017-11-26T14:21:47.340Z,5.87
2017-11-26T14:24:14.855Z,5.89
2017-11-26T14:26:42.373Z,5.84
2017-11-26T14:29:09.896Z,5.87
2017-11-26T14:31:37.417Z,5.83
2017-11-26T14:34:04.970Z,5.85
2017-11-26T14:36:32.497Z,5.85
2017-11-26T14:39:00.026Z,5.82
2017-11-26T14:41:27.566Z,5.86
2017-11-26T14:43:55.086Z,5.83
2017-11-26T14:46:22.616Z,5.79
2017-11-26T14:48:50.182Z,5.75
2017-11-26T14:51:17.710Z,5.77
2017-11-26T14:53:45.229Z,5.75
2017-11-26T14:56:12.783Z,5.76
2017-11-26T14:58:40.310Z,5.75
2017-11-26T15:01:07.831Z,5.76
2017-11-26T15:03:35.357Z,5.81
2017-11-26T15:06:02.949Z,5.77
2017-11-26T15:08:30.463Z,5.76
2017-11-26T15:10:57.978Z,5.73
2017-11-26T15:13:25.506Z,5.74
2017-11-26T15:15:53.036Z,5.76
2017-11-26T15:18:20.553Z,5.70
2017-11-26T15:20:48.068Z,5.70
2017-11-26T15:23:15.592Z,5.69
2017-11-26T15:25:43.109Z,5.67
2017-11-26T15:28:10.624Z,5.63
2017-11-26T15:30:38.144Z,5.66
2017-11-26T15:33:05.653Z,5.65
2017-11-26T15:35:33.172Z,5.58
2017-11-26T15:38:00.705Z,5.48
2017-11-26T15:40:28.226Z,5.44
2017-11-26T15:42:55.798Z,5.33
2017-11-26T15:45:23.319Z,5.40
2017-11-26T15:47:50.845Z,5.38
2017-11-26T15:50:18.375Z,5.38
2017-11-26T15:52:45.896Z,5.39
2017-11-26T15:55:13.409Z,5.37
2017-11-26T15:57:40.920Z,5.43
2017-11-26T16:00:09.355Z,5.41
2017-11-26T16:02:36.861Z,5.39
2017-11-26T16:05:04.366Z,5.34
2017-11-26T16:07:31.897Z,5.38
2017-11-26T16:09:59.423Z,5.38
2017-11-26T16:12:26.945Z,5.31
2017-11-26T16:14:54.459Z,5.33
2017-11-26T16:17:21.966Z,5.33
2017-11-26T16:19:49.478Z,5.32
2017-11-26T16:22:16.993Z,5.34
2017-11-26T16:24:44.513Z,5.31
2017-11-26T16:27:12.034Z,5.33
2017-11-26T16:29:39.545Z,5.30
2017-11-26T16:32:07.075Z,5.31
2017-11-26T16:34:34.600Z,5.22
2017-11-26T16:37:02.126Z,5.24
2017-11-26T16:39:29.639Z,5.29
2017-11-26T16:41:57.158Z,5.28
2017-11-26T16:44:24.691Z,5.31
2017-11-26T16:46:52.227Z,5.23
2017-11-26T16:49:19.751Z,5.19
2017-11-26T16:51:47.283Z,5.19
2017-11-26T16:54:14.795Z,5.18
2017-11-26T16:56:42.308Z,5.18
2017-11-26T16:59:09.830Z,5.11
2017-11-26T17:01:37.352Z,5.15
2017-11-26T17:04:04.870Z,5.09
2017-11-26T17:06:32.394Z,5.11
2017-11-26T17:08:59.917Z,5.12
2017-11-26T17:11:27.465Z,5.10
2017-11-26T17:13:54.979Z,5.12
2017-11-26T17:16:23.314Z,5.13
2017-11-26T17:18:50.839Z,5.07
2017-11-26T17:21:18.355Z,5.02
2017-11-26T17:23:45.891Z,5.10
2017-11-26T17:26:13.410Z,5.06
2017-11-26T17:28:40.926Z,5.07
2017-11-26T17:31:08.437Z,5.05
2017-11-26T17:33:36.150Z,5.04
2017-11-26T17:36:03.901Z,5.04
2017-11-26T17:38:31.456Z,4.99
2017-11-26T17:40:58.978Z,5.03
2017-11-26T17:43:26.512Z,5.06
2017-11-26T17:45:54.039Z,5.05
2017-11-26T17:48:21.590Z,5.05
2017-11-26T17:50:49.098Z,5.00
2017-11-26T17:53:16.612Z,5.02
2017-11-26T17:55:44.124Z,5.00
2017-11-26T17:58:11.647Z,5.07
2017-11-26T18:00:39.190Z,5.06
2017-11-26T18:03:06.707Z,5.03
2017-11-26T18:05:35.487Z,5.01
2017-11-26T18:08:03.303Z,5.00
2017-11-26T18:10:31.054Z,5.00
2017-11-26T18:12:58.699Z,4.98
2017-11-26T18:15:26.560Z,4.96
2017-11-26T18:17:54.070Z,5.03
2017-11-26T18:20:21.589Z,4.95
2017-11-26T18:22:49.117Z,5.03
2017-11-26T18:25:16.644Z,5.06
2017-11-26T18:27:44.172Z,5.03
2017-11-26T18:30:11.698Z,5.08
2017-11-26T18:32:39.217Z,5.07
2017-11-26T18:35:06.907Z,5.04
2017-11-26T18:37:34.484Z,5.03
2017-11-26T18:40:02.057Z,4.98
2017-11-26T18:42:29.644Z,5.06
2017-11-26T18:44:57.161Z,5.04
2017-11-26T18:47:24.865Z,5.11
2017-11-26T18:49:52.670Z,5.07
2017-11-26T18:52:20.194Z,5.04
2017-11-26T18:54:47.981Z,5.05
2017-11-26T18:57:15.594Z,5.05
2017-11-26T18:59:43.287Z,5.10
2017-11-26T19:02:10.846Z,5.09
2017-11-26T19:04:38.526Z,5.05
2017-11-26T19:07:06.298Z,5.10
2017-11-26T19:09:33.818Z,5.10
2017-11-26T19:12:01.461Z,5.10
2017-11-26T19:14:28.986Z,5.13
2017-11-26T19:16:56.507Z,5.15
2017-11-26T19:19:24.046Z,5.13
2017-11-26T19:21:51.576Z,5.17
2017-11-26T19:24:19.114Z,5.14
2017-11-26T19:26:46.660Z,5.14
2017-11-26T19:29:14.179Z,5.12
2017-11-26T19:31:41.701Z,5.13
2017-11-26T19:34:09.216Z,5.10
2017-11-26T19:36:36.740Z,5.11
2017-11-26T19:39:04.259Z,5.12
2017-11-26T19:41:31.781Z,5.10
2017-11-26T19:43:59.300Z,5.10
2017-11-26T19:46:26.831Z,5.11
2017-11-26T19:48:54.343Z,5.09
2017-11-26T19:51:21.866Z,5.11
2017-11-26T19:53:49.392Z,5.12
2017-11-26T19:56:16.906Z,5.14
2017-11-26T19:58:46.407Z,5.16
2017-11-26T20:01:13.932Z,5.17
2017-11-26T20:03:41.460Z,5.12
2017-11-26T20:06:08.987Z,5.14
2017-11-26T20:08:36.507Z,5.11
2017-11-26T20:11:04.027Z,5.14
2017-11-26T20:13:31.544Z,5.15
2017-11-26T20:15:59.062Z,5.16
2017-11-26T20:18:26.586Z,5.13
2017-11-26T20:20:54.103Z,5.16
2017-11-26T20:23:21.619Z,5.18
2017-11-26T20:25:49.136Z,5.19
2017-11-26T20:28:16.660Z,5.17
2017-11-26T20:30:44.183Z,5.18
2017-11-26T20:33:11.708Z,5.18
2017-11-26T20:35:39.232Z,5.17
2017-11-26T20:38:06.747Z,5.18
2017-11-26T20:40:34.266Z,5.22
2017-11-26T20:43:01.802Z,5.20
2017-11-26T20:45:29.334Z,5.14
2017-11-26T20:47:56.861Z,5.21
2017-11-26T20:50:24.380Z,5.21
2017-11-26T20:52:51.913Z,5.22
2017-11-26T20:55:19.446Z,5.24
2017-11-26T20:57:46.971Z,5.23
2017-11-26T21:00:14.504Z,5.20
2017-11-26T21:02:42.033Z,5.18
2017-11-26T21:05:09.559Z,5.20
2017-11-26T21:07:37.094Z,5.13
2017-11-26T21:10:04.627Z,5.16
2017-11-26T21:12:32.142Z,5.19
2017-11-26T21:14:59.688Z,5.19
2017-11-26T21:17:27.209Z,5.19
2017-11-26T21:19:54.744Z,5.22
2017-11-26T21:22:22.257Z,5.18
2017-11-26T21:24:49.778Z,5.17
2017-11-26T21:27:17.320Z,5.19
2017-11-26T21:29:44.827Z,5.16
2017-11-26T21:32:12.352Z,5.20
2017-11-26T21:34:39.859Z,5.18
2017-11-26T21:37:07.377Z,5.18
2017-11-26T21:39:34.897Z,5.17
2017-11-26T21:42:02.411Z,5.15
2017-11-26T21:44:29.925Z,5.14
2017-11-26T21:46:57.455Z,5.16
2017-11-26T21:49:24.986Z,5.15
2017-11-26T21:51:52.532Z,5.28
2017-11-26T21:54:20.051Z,5.19
2017-11-26T21:56:47.564Z,5.23
2017-11-26T21:59:15.085Z,5.18
2017-11-26T22:01:42.604Z,5.18
2017-11-26T22:04:10.131Z,5.23
2017-11-26T22:06:37.644Z,5.24
2017-11-26T22:09:05.168Z,5.22
2017-11-26T22:11:32.698Z,5.25
2017-11-26T22:14:00.212Z,5.27
2017-11-26T22:16:27.727Z,5.23
2017-11-26T22:18:55.242Z,5.24
2017-11-26T22:21:22.765Z,5.27
2017-11-26T22:23:50.300Z,5.27
2017-11-26T22:26:17.819Z,5.26
2017-11-26T22:28:45.351Z,5.25
2017-11-26T22:31:12.880Z,5.23
2017-11-26T22:33:40.404Z,5.28
2017-11-26T22:36:07.931Z,5.30
2017-11-26T22:38:35.452Z,5.27
2017-11-26T22:41:02.965Z,5.26
2017-11-26T22:43:30.478Z,5.29
2017-11-26T22:45:57.997Z,5.33
2017-11-26T22:48:25.507Z,5.38
2017-11-26T22:50:53.028Z,5.34
2017-11-26T22:53:20.552Z,5.35
2017-11-26T22:55:48.078Z,5.35
2017-11-26T22:58:15.603Z,5.36
2017-11-26T23:00:43.125Z,5.38
2017-11-26T23:03:10.640Z,5.37
2017-11-26T23:05:38.161Z,5.40
2017-11-26T23:08:05.682Z,5.40
2017-11-26T23:10:33.200Z,5.41
2017-11-26T23:13:00.714Z,5.41
2017-11-26T23:15:28.231Z,5.40
2017-11-26T23:17:55.746Z,5.40
2017-11-26T23:20:23.265Z,5.41
2017-11-26T23:22:50.796Z,5.41
2017-11-26T23:25:18.341Z,5.42
2017-11-26T23:27:45.854Z,5.41
2017-11-26T23:30:13.373Z,5.43
2017-11-26T23:32:40.888Z,5.40
2017-11-26T23:35:08.418Z,5.39
2017-11-26T23:37:35.952Z,5.38
2017-11-26T23:40:03.474Z,5.38
2017-11-26T23:42:30.990Z,5.38
2017-11-26T23:44:58.514Z,5.35
2017-11-26T23:47:26.048Z,5.39
2017-11-26T23:49:53.565Z,5.43
2017-11-26T23:52:21.079Z,5.37
2017-11-26T23:54:48.599Z,5.42
2017-11-26T23:57:16.124Z,5.41
2017-11-26T23:59:43.643Z,5.35
